Terminal Aerodrome Forecast
Issued by NWS

Home | Current Version | Previous Version | Text Only | Print | Product List | Glossary On
Versions: 1 2 3 4 5 6 7 8 9 10 11 12 13 14 15 16 17 18 19 20 21 22 23 24 25 26 27 28 29 30 31 32 33 34 35 36 37 38 39 40 41 42 43 44 45 46
782
FTPA31 PHFO 050545
TAFMDY
TAF
PMDY 050545Z 0506/0606 02010KT P6SM SCT022 BKN035
      TEMPO 0506/0510 BKN022
     FM051900 02015KT P6SM SCT022 BKN035
     FM052200 04015KT P6SM SCT015 SCT035=

USA.gov is the U.S. government's official web portal to all federal, state and local government web resources and services.